Time;durP1;ratioP1;P1;durP2;ratioP2;P2;SDS_P1;SDS_P2;PMS_P1;PMS_P2;Temp;Humidity;BMP_temperature;BMP_pressure;BME280_temperature;BME280_humidity;BME280_pressure;Samples;Min_cycle;Max_cycle;Signal;HPM_P1;HPM_P2
2022/11/22 00:02:22;;;;;;;25.03;15.93;;;-1.90;99.90;;;;;;4920954;28;20910;-77
2022/11/22 00:04:52;;;;;;;27.70;15.53;;;-1.90;99.90;;;;;;4902941;28;20235;-77
2022/11/22 00:07:19;;;;;;;26.80;15.40;;;-1.90;99.90;;;;;;4902128;28;20265;-77
2022/11/22 00:09:45;;;;;;;39.87;16.60;;;-1.80;99.90;;;;;;4906760;28;20229;-77
2022/11/22 00:12:12;;;;;;;31.83;15.47;;;-1.80;99.90;;;;;;4906875;28;20229;-77
2022/11/22 00:14:39;;;;;;;31.60;16.50;;;-1.80;99.90;;;;;;4899675;28;20267;-77
2022/11/22 00:17:05;;;;;;;31.03;15.57;;;-1.80;99.90;;;;;;4904907;28;20253;-78
2022/11/22 00:19:34;;;;;;;25.10;15.70;;;-1.80;99.90;;;;;;4904113;28;20248;-77
2022/11/22 00:22:02;;;;;;;29.73;15.97;;;-1.80;99.90;;;;;;4905417;28;20224;-77
2022/11/22 00:24:28;;;;;;;28.60;15.30;;;-1.70;99.90;;;;;;4893602;28;20249;-77
2022/11/22 00:26:55;;;;;;;23.53;15.60;;;-1.70;99.90;;;;;;4931806;28;20234;-78
2022/11/22 00:29:22;;;;;;;25.27;16.23;;;-1.80;99.90;;;;;;4906789;28;20223;-77
2022/11/22 00:31:48;;;;;;;36.50;16.10;;;-1.80;99.90;;;;;;4911002;28;20226;-77
2022/11/22 00:34:15;;;;;;;25.57;15.73;;;-1.80;99.90;;;;;;4904574;28;20741;-77
2022/11/22 00:36:42;;;;;;;28.83;16.07;;;-1.80;99.90;;;;;;4903745;28;20225;-77
2022/11/22 00:39:10;;;;;;;24.37;15.07;;;-1.80;99.90;;;;;;4914294;28;20333;-77
2022/11/22 00:41:36;;;;;;;23.87;15.70;;;-1.70;99.90;;;;;;4913118;28;20231;-77
2022/11/22 00:44:03;;;;;;;23.10;15.07;;;-1.70;99.90;;;;;;4909569;28;20238;-77
2022/11/22 00:46:30;;;;;;;29.27;16.37;;;-1.70;99.90;;;;;;4947960;28;20317;-77
2022/11/22 00:48:56;;;;;;;33.00;17.03;;;-1.70;99.90;;;;;;4902758;28;20235;-77
2022/11/22 00:51:23;;;;;;;28.73;17.37;;;-1.70;99.90;;;;;;4902455;28;20249;-77
2022/11/22 00:53:50;;;;;;;33.20;17.13;;;-1.60;99.90;;;;;;4904125;28;20231;-78
2022/11/22 00:56:18;;;;;;;25.47;16.93;;;-1.60;99.90;;;;;;4904696;28;20239;-77
2022/11/22 00:58:44;;;;;;;28.43;16.67;;;-1.60;99.90;;;;;;4904650;28;20231;-78
2022/11/22 01:01:11;;;;;;;28.70;16.23;;;-1.70;99.90;;;;;;4906264;28;20223;-78
2022/11/22 01:03:38;;;;;;;26.67;16.97;;;-1.60;99.90;;;;;;4920884;28;20236;-77
2022/11/22 01:06:05;;;;;;;26.53;16.90;;;-1.60;99.90;;;;;;4909290;28;20747;-77
2022/11/22 01:08:31;;;;;;;49.23;17.23;;;-1.60;99.90;;;;;;4906657;28;20230;-77
2022/11/22 01:10:59;;;;;;;38.67;18.00;;;-1.60;99.90;;;;;;4902341;28;20223;-77
2022/11/22 01:13:28;;;;;;;37.80;18.13;;;-1.60;99.90;;;;;;4908478;28;20245;-77
2022/11/22 01:15:59;;;;;;;28.70;17.40;;;-1.60;99.90;;;;;;4906133;28;20362;-77
2022/11/22 01:18:26;;;;;;;31.73;17.50;;;-1.50;99.90;;;;;;4919031;28;20757;-77
2022/11/22 01:20:53;;;;;;;38.63;17.87;;;-1.50;99.90;;;;;;4902212;28;20240;-77
2022/11/22 01:23:19;;;;;;;28.57;18.00;;;-1.50;99.90;;;;;;4905392;28;20321;-77
2022/11/22 01:25:46;;;;;;;28.77;17.60;;;-1.50;99.90;;;;;;4909142;28;20226;-77
2022/11/22 01:28:13;;;;;;;33.67;16.37;;;-1.50;99.90;;;;;;4904287;28;20236;-77
2022/11/22 01:30:41;;;;;;;77.97;20.10;;;-1.50;99.90;;;;;;4906042;28;20222;-77
2022/11/22 01:33:08;;;;;;;27.67;17.33;;;-1.50;99.90;;;;;;4910365;28;20229;-77
2022/11/22 01:35:35;;;;;;;31.70;17.43;;;-1.50;99.90;;;;;;4918339;28;20241;-77
2022/11/22 01:38:02;;;;;;;30.10;17.67;;;-1.40;99.90;;;;;;4913422;28;20234;-77
2022/11/22 01:40:29;;;;;;;35.17;18.07;;;-1.40;99.90;;;;;;4905284;28;20312;-77
2022/11/22 01:42:57;;;;;;;24.80;16.60;;;-1.40;99.90;;;;;;4910276;28;20227;-77
2022/11/22 01:45:43;;;;;;;33.77;18.10;;;-1.40;99.90;;;;;;4895994;28;20231;-77
2022/11/22 01:48:19;;;;;;;42.93;17.33;;;-1.40;99.90;;;;;;4912689;28;20236;-77
2022/11/22 01:50:51;;;;;;;32.87;17.00;;;-1.40;99.90;;;;;;4907249;28;20245;-77
2022/11/22 01:53:22;;;;;;;26.90;16.50;;;-1.30;99.90;;;;;;4900517;28;20242;-77
2022/11/22 01:55:50;;;;;;;29.17;17.77;;;-1.30;99.90;;;;;;4901151;28;20229;-77
2022/11/22 01:58:18;;;;;;;26.87;16.87;;;-1.30;99.90;;;;;;4909898;28;20231;-77
2022/11/22 02:00:47;;;;;;;29.47;17.57;;;-1.30;99.90;;;;;;4906076;28;20223;-77
2022/11/22 02:03:16;;;;;;;33.50;17.90;;;-1.30;99.90;;;;;;4904531;28;20239;-77
2022/11/22 02:05:43;;;;;;;28.93;16.73;;;-1.30;99.90;;;;;;4905221;28;20229;-77
2022/11/22 02:08:15;;;;;;;36.90;17.63;;;-1.30;99.90;;;;;;4905261;28;20615;-77
2022/11/22 02:10:46;;;;;;;34.27;17.50;;;-1.30;99.90;;;;;;4904928;28;20239;-77
2022/11/22 02:13:14;;;;;;;28.00;17.50;;;-1.30;99.90;;;;;;4905083;28;20230;-77
2022/11/22 02:15:41;;;;;;;28.97;17.30;;;-1.30;99.90;;;;;;4903379;28;20218;-77
2022/11/22 02:18:10;;;;;;;30.50;17.70;;;-1.30;99.90;;;;;;4909589;28;20235;-77
2022/11/22 02:20:38;;;;;;;44.63;18.67;;;-1.30;99.90;;;;;;4902676;28;20232;-77
2022/11/22 02:23:11;;;;;;;29.77;17.77;;;-1.30;99.90;;;;;;4908746;28;20222;-78
2022/11/22 02:25:51;;;;;;;29.37;17.70;;;-1.30;99.90;;;;;;4911365;28;20228;-78
2022/11/22 02:28:18;;;;;;;30.77;18.63;;;-1.20;99.90;;;;;;4929004;28;20775;-77
2022/11/22 02:30:45;;;;;;;32.03;17.70;;;-1.20;99.90;;;;;;4906643;28;20223;-77
2022/11/22 02:33:11;;;;;;;32.50;17.43;;;-1.30;99.90;;;;;;4901526;28;20904;-77
2022/11/22 02:35:40;;;;;;;42.67;18.50;;;-1.20;99.90;;;;;;4902672;28;20239;-77
2022/11/22 02:38:10;;;;;;;26.97;18.27;;;-1.30;99.90;;;;;;4905258;28;20227;-77
2022/11/22 02:40:42;;;;;;;28.30;17.77;;;-1.30;99.90;;;;;;4904408;28;20230;-78
2022/11/22 02:43:13;;;;;;;36.03;18.03;;;-1.20;99.90;;;;;;4906474;28;20225;-77
2022/11/22 02:45:40;;;;;;;27.40;17.00;;;-1.30;99.90;;;;;;4922378;28;20976;-77
2022/11/22 02:48:08;;;;;;;36.50;18.93;;;-1.20;99.90;;;;;;4908071;28;20219;-76
2022/11/22 02:50:35;;;;;;;26.53;16.97;;;-1.20;99.90;;;;;;4905759;28;20236;-77
2022/11/22 02:53:02;;;;;;;39.63;18.40;;;-1.20;99.90;;;;;;4919161;28;20234;-78
2022/11/22 02:55:29;;;;;;;26.53;17.07;;;-1.20;99.90;;;;;;4911165;28;20337;-77
2022/11/22 02:57:56;;;;;;;27.50;17.07;;;-1.20;99.90;;;;;;4903104;28;20783;-77
2022/11/22 03:00:24;;;;;;;52.40;17.93;;;-1.20;99.90;;;;;;4904613;28;20221;-77
2022/11/22 03:02:51;;;;;;;27.17;17.07;;;-1.20;99.90;;;;;;4918733;28;20289;-78
2022/11/22 03:05:17;;;;;;;32.63;17.43;;;-1.20;99.90;;;;;;4898193;28;20228;-78
2022/11/22 03:07:44;;;;;;;29.50;17.90;;;-1.20;99.90;;;;;;4905059;28;20228;-78
2022/11/22 03:10:11;;;;;;;27.90;17.93;;;-1.20;99.90;;;;;;4906311;28;20236;-77
2022/11/22 03:12:38;;;;;;;26.87;17.07;;;-1.20;99.90;;;;;;4930836;28;20815;-77
2022/11/22 03:15:05;;;;;;;25.03;16.57;;;-1.20;99.90;;;;;;4922587;28;20231;-77
2022/11/22 03:17:33;;;;;;;30.07;17.63;;;-1.20;99.90;;;;;;4905804;28;20234;-77
2022/11/22 03:19:59;;;;;;;28.83;17.73;;;-1.20;99.90;;;;;;4901713;28;20219;-77
2022/11/22 03:22:26;;;;;;;29.13;18.20;;;-1.20;99.90;;;;;;4902242;28;20235;-77
2022/11/22 03:24:53;;;;;;;26.10;16.57;;;-1.20;99.90;;;;;;4911909;28;20232;-77
2022/11/22 03:27:20;;;;;;;42.60;18.53;;;-1.20;99.90;;;;;;4901548;28;20229;-78
2022/11/22 03:29:46;;;;;;;26.17;17.20;;;-1.20;99.90;;;;;;4903135;28;20804;-77
2022/11/22 03:32:13;;;;;;;27.33;16.87;;;-1.20;99.90;;;;;;4928771;28;20227;-78
2022/11/22 03:34:41;;;;;;;33.33;17.83;;;-1.20;99.90;;;;;;4907284;28;20246;-77
2022/11/22 03:37:07;;;;;;;25.97;17.73;;;-1.20;99.90;;;;;;4917640;28;20242;-77
2022/11/22 03:39:34;;;;;;;24.53;16.80;;;-1.20;99.90;;;;;;4912401;28;20229;-77
2022/11/22 03:42:01;;;;;;;30.50;16.23;;;-1.20;99.90;;;;;;4920205;28;20333;-77
2022/11/22 03:44:27;;;;;;;42.37;17.63;;;-1.20;99.90;;;;;;4902140;28;20245;-78
2022/11/22 03:46:54;;;;;;;28.53;17.67;;;-1.20;99.90;;;;;;4907429;28;20231;-78
2022/11/22 03:49:21;;;;;;;27.57;16.67;;;-1.10;99.90;;;;;;4903383;28;20231;-78
2022/11/22 03:51:49;;;;;;;25.53;16.17;;;-1.10;99.90;;;;;;4903094;28;20231;-77
2022/11/22 03:54:15;;;;;;;27.83;16.70;;;-1.10;99.90;;;;;;4914981;28;20221;-77
2022/11/22 03:56:42;;;;;;;29.33;17.47;;;-1.10;99.90;;;;;;4908037;28;20223;-77
2022/11/22 03:59:09;;;;;;;70.40;19.07;;;-1.10;99.90;;;;;;4899334;28;20230;-76
2022/11/22 04:01:35;;;;;;;24.73;16.00;;;-1.20;99.90;;;;;;4910691;28;20226;-77
2022/11/22 04:04:02;;;;;;;27.30;16.23;;;-1.10;99.90;;;;;;4911402;28;20262;-78
2022/11/22 04:06:29;;;;;;;80.90;19.37;;;-1.20;99.90;;;;;;4923569;28;20751;-77
2022/11/22 04:08:57;;;;;;;26.30;16.50;;;-1.20;99.90;;;;;;4910013;28;20225;-77
2022/11/22 04:11:23;;;;;;;26.83;17.13;;;-1.10;99.90;;;;;;4907832;28;20231;-77
2022/11/22 04:16:34;;;;;;;27.37;16.87;;;-1.10;99.90;;;;;;4914868;28;20616;-77
2022/11/22 04:19:01;;;;;;;26.87;16.97;;;-1.10;99.90;;;;;;4905379;28;20782;-77
2022/11/22 04:21:33;;;;;;;30.87;18.33;;;-1.10;99.90;;;;;;4903242;28;20303;-77
2022/11/22 04:26:46;;;;;;;28.17;16.87;;;-1.10;99.90;;;;;;4900912;28;20305;-77
2022/11/22 04:29:12;;;;;;;29.73;17.47;;;-1.10;99.90;;;;;;4904878;28;20228;-77
2022/11/22 04:34:20;;;;;;;28.93;18.07;;;-1.10;99.90;;;;;;4976764;28;20227;-77
2022/11/22 04:36:46;;;;;;;28.20;17.97;;;-1.00;99.90;;;;;;4985724;28;20231;-77
2022/11/22 04:39:14;;;;;;;27.90;16.67;;;-1.10;99.90;;;;;;4902385;28;20325;-78
2022/11/22 04:41:41;;;;;;;27.43;18.13;;;-1.00;99.90;;;;;;4908035;28;20231;-77
2022/11/22 04:46:53;;;;;;;30.07;17.37;;;-1.00;99.90;;;;;;4928286;28;20265;-78
2022/11/22 04:49:19;;;;;;;25.87;16.67;;;-0.90;99.90;;;;;;4900449;28;20236;-78
2022/11/22 04:54:31;;;;;;;27.63;17.27;;;-0.90;99.90;;;;;;4987579;28;20227;-78
2022/11/22 04:56:58;;;;;;;29.20;18.43;;;-0.90;99.90;;;;;;4919080;28;20300;-76
2022/11/22 04:59:25;;;;;;;28.83;18.23;;;-0.80;99.90;;;;;;4907672;28;20231;-78
2022/11/22 05:01:52;;;;;;;39.43;19.23;;;-0.90;99.90;;;;;;4906105;28;20774;-76
2022/11/22 05:04:19;;;;;;;28.80;18.53;;;-0.80;99.90;;;;;;4915382;28;20242;-76
2022/11/22 05:06:45;;;;;;;27.33;17.90;;;-0.80;99.90;;;;;;4921039;28;20240;-77
2022/11/22 05:09:12;;;;;;;26.23;17.73;;;-0.80;99.90;;;;;;4915698;28;20228;-77
2022/11/22 05:11:40;;;;;;;30.07;17.83;;;-0.80;99.90;;;;;;4904714;28;20235;-77
2022/11/22 05:14:07;;;;;;;27.10;17.63;;;-0.80;99.90;;;;;;4903060;28;20240;-76
2022/11/22 05:16:33;;;;;;;33.17;16.70;;;-0.80;99.90;;;;;;4905044;28;20242;-77
2022/11/22 05:19:00;;;;;;;34.00;18.60;;;-0.70;99.90;;;;;;4962069;28;20227;-77
2022/11/22 05:21:28;;;;;;;29.50;17.93;;;-0.70;99.90;;;;;;4903692;28;20899;-77
2022/11/22 05:23:54;;;;;;;27.80;17.93;;;-0.70;99.90;;;;;;4904698;28;20251;-77
2022/11/22 05:26:23;;;;;;;32.80;17.87;;;-0.70;99.90;;;;;;4908875;28;20326;-76
2022/11/22 05:28:52;;;;;;;29.73;18.83;;;-0.60;99.90;;;;;;4922423;29;20224;-76
2022/11/22 05:31:21;;;;;;;28.83;18.17;;;-0.60;99.90;;;;;;4923597;28;20246;-77
2022/11/22 05:33:50;;;;;;;29.00;18.17;;;-0.60;99.90;;;;;;4907495;28;21028;-77
2022/11/22 05:36:17;;;;;;;29.40;18.53;;;-0.50;99.90;;;;;;4931117;28;20240;-77
2022/11/22 05:38:44;;;;;;;42.17;19.07;;;-0.60;99.90;;;;;;4918501;28;20220;-77
2022/11/22 05:41:12;;;;;;;62.97;19.47;;;-0.50;99.90;;;;;;4922391;28;20229;-76
2022/11/22 05:43:40;;;;;;;36.50;18.67;;;-0.60;99.90;;;;;;4907700;28;20233;-76
2022/11/22 05:46:10;;;;;;;30.77;18.10;;;-0.50;99.90;;;;;;4908806;28;20231;-76
2022/11/22 05:48:39;;;;;;;27.70;18.47;;;-0.50;99.90;;;;;;4904559;28;20219;-75
2022/11/22 05:51:06;;;;;;;26.87;17.87;;;-0.50;99.90;;;;;;4915312;28;20681;-75
2022/11/22 05:53:33;;;;;;;35.30;19.20;;;-0.50;99.90;;;;;;4906380;28;20239;-75
2022/11/22 05:56:04;;;;;;;28.83;17.87;;;-0.50;99.90;;;;;;4906672;28;20235;-75
2022/11/22 05:58:30;;;;;;;30.87;18.30;;;-0.50;99.90;;;;;;4898227;28;20242;-76
2022/11/22 06:01:01;;;;;;;30.83;18.87;;;-0.50;99.90;;;;;;4905822;28;20955;-75
2022/11/22 06:03:29;;;;;;;28.77;19.03;;;-0.50;99.90;;;;;;4904404;28;20238;-76
2022/11/22 06:05:56;;;;;;;34.17;18.77;;;-0.50;99.90;;;;;;4908867;28;20243;-76
2022/11/22 06:08:23;;;;;;;27.13;18.00;;;-0.50;99.90;;;;;;4926337;28;20790;-77
2022/11/22 06:10:50;;;;;;;30.30;18.27;;;-0.50;99.90;;;;;;4910893;28;20877;-77
2022/11/22 06:13:16;;;;;;;56.57;20.63;;;-0.50;99.90;;;;;;4896284;28;20243;-77
2022/11/22 06:15:43;;;;;;;27.10;18.03;;;-0.50;99.90;;;;;;4909648;28;20265;-77
2022/11/22 06:18:10;;;;;;;31.13;18.73;;;-0.50;99.90;;;;;;4919280;28;20345;-77
2022/11/22 06:20:38;;;;;;;38.83;20.57;;;-0.50;99.90;;;;;;4918701;28;20237;-77
2022/11/22 06:23:04;;;;;;;38.60;19.00;;;-0.40;99.90;;;;;;4903707;28;20240;-77
2022/11/22 06:25:32;;;;;;;29.80;17.87;;;-0.40;99.90;;;;;;4906342;28;21026;-77
2022/11/22 06:27:59;;;;;;;30.60;20.23;;;-0.40;99.90;;;;;;4904888;28;20284;-77
2022/11/22 06:30:26;;;;;;;28.87;18.40;;;-0.40;99.90;;;;;;4925122;28;20239;-77
2022/11/22 06:32:52;;;;;;;137.03;26.73;;;-0.50;99.90;;;;;;4903657;28;20327;-76
2022/11/22 06:35:19;;;;;;;30.67;18.77;;;-0.40;99.90;;;;;;4915212;28;20229;-77
2022/11/22 06:37:48;;;;;;;34.40;20.13;;;-0.40;99.90;;;;;;4908581;28;20227;-77
2022/11/22 06:40:17;;;;;;;30.60;19.53;;;-0.40;99.90;;;;;;4906196;28;20232;-77
2022/11/22 06:42:44;;;;;;;32.47;18.57;;;-0.40;99.90;;;;;;4900057;28;20225;-76
2022/11/22 06:45:11;;;;;;;32.33;19.63;;;-0.40;99.90;;;;;;4894908;28;20804;-76
2022/11/22 06:47:38;;;;;;;29.53;19.23;;;-0.40;99.90;;;;;;4901086;28;20683;-76
2022/11/22 06:50:05;;;;;;;32.87;18.33;;;-0.40;99.90;;;;;;4905568;28;20252;-76
2022/11/22 06:52:32;;;;;;;34.23;20.17;;;-0.40;99.90;;;;;;4906156;28;20546;-76
2022/11/22 06:55:00;;;;;;;29.80;19.60;;;-0.40;99.90;;;;;;4900186;28;20264;-76
2022/11/22 06:57:26;;;;;;;32.77;19.93;;;-0.40;99.90;;;;;;4903988;28;20592;-76
2022/11/22 06:59:53;;;;;;;85.70;21.57;;;-0.30;99.90;;;;;;4913497;28;20227;-76
2022/11/22 07:02:20;;;;;;;30.90;20.33;;;-0.30;99.90;;;;;;4904925;28;20244;-77
2022/11/22 07:04:47;;;;;;;70.83;21.70;;;-0.30;99.90;;;;;;4902845;28;20238;-76
2022/11/22 07:07:14;;;;;;;31.97;20.40;;;-0.30;99.90;;;;;;4903560;28;20239;-76
2022/11/22 07:09:41;;;;;;;31.27;19.80;;;-0.30;99.90;;;;;;4909156;28;20226;-76
2022/11/22 07:12:09;;;;;;;30.50;21.03;;;-0.30;99.90;;;;;;4905429;28;20708;-77
2022/11/22 07:14:36;;;;;;;29.23;19.50;;;-0.30;99.90;;;;;;4900989;28;20231;-77
2022/11/22 07:17:02;;;;;;;32.27;20.37;;;-0.30;99.90;;;;;;4918587;28;20243;-77
2022/11/22 07:19:29;;;;;;;33.77;19.93;;;-0.30;99.90;;;;;;4909389;28;20256;-77
2022/11/22 07:21:56;;;;;;;29.13;19.50;;;-0.30;99.90;;;;;;4904669;28;20595;-77
2022/11/22 07:24:22;;;;;;;42.90;20.07;;;-0.30;99.90;;;;;;4904888;28;20228;-77
2022/11/22 07:26:49;;;;;;;31.53;20.10;;;-0.30;99.90;;;;;;4912843;28;20232;-78
2022/11/22 07:29:17;;;;;;;42.03;20.13;;;-0.30;99.90;;;;;;4905145;28;20228;-78
2022/11/22 07:31:46;;;;;;;55.93;22.10;;;-0.30;99.90;;;;;;4904869;28;20248;-77
2022/11/22 07:34:13;;;;;;;77.33;22.17;;;-0.30;99.90;;;;;;4909316;29;20618;-77
2022/11/22 07:36:40;;;;;;;31.17;19.63;;;-0.30;99.90;;;;;;4926589;28;20246;-78
2022/11/22 07:39:06;;;;;;;33.93;19.40;;;-0.30;99.90;;;;;;4905382;28;20230;-77
2022/11/22 07:41:33;;;;;;;31.83;19.33;;;-0.30;99.90;;;;;;4906017;28;20240;-77
2022/11/22 07:44:00;;;;;;;36.90;19.93;;;-0.30;99.90;;;;;;4914748;28;20228;-77
2022/11/22 07:46:30;;;;;;;29.23;20.13;;;-0.20;99.90;;;;;;4900604;28;20303;-77
2022/11/22 07:48:57;;;;;;;58.30;20.47;;;-0.20;99.90;;;;;;4916811;28;20229;-78
2022/11/22 07:51:24;;;;;;;30.60;19.40;;;-0.20;99.90;;;;;;4896379;28;20236;-78
2022/11/22 07:53:51;;;;;;;29.03;19.37;;;-0.20;99.90;;;;;;4900938;28;21024;-77
2022/11/22 07:56:18;;;;;;;33.53;19.80;;;-0.20;99.90;;;;;;4919386;28;20247;-77
2022/11/22 07:58:45;;;;;;;49.57;20.30;;;-0.20;99.90;;;;;;4941127;28;20746;-77
2022/11/22 08:01:13;;;;;;;34.93;19.30;;;-0.20;99.90;;;;;;4902915;28;20239;-77
2022/11/22 08:03:42;;;;;;;31.80;20.27;;;-0.10;99.90;;;;;;4905937;28;20248;-77
2022/11/22 08:06:10;;;;;;;30.53;19.47;;;-0.10;99.90;;;;;;4919050;28;20221;-77
2022/11/22 08:08:39;;;;;;;45.10;20.50;;;-0.20;99.90;;;;;;4990981;28;20231;-78
2022/11/22 08:11:07;;;;;;;40.20;20.13;;;-0.20;99.90;;;;;;4907855;28;20246;-77
2022/11/22 08:13:34;;;;;;;30.80;20.23;;;-0.20;99.90;;;;;;4904759;28;20233;-77
2022/11/22 08:16:04;;;;;;;37.57;19.87;;;-0.20;99.90;;;;;;4907991;28;20231;-78
2022/11/22 08:18:30;;;;;;;28.27;19.00;;;-0.30;99.90;;;;;;4945772;28;20238;-78
2022/11/22 08:21:07;;;;;;;30.77;18.97;;;-0.20;99.90;;;;;;4906980;28;20273;-77
2022/11/22 08:23:38;;;;;;;32.53;18.13;;;-0.20;99.90;;;;;;4923444;28;20322;-77
2022/11/22 08:26:07;;;;;;;30.40;20.13;;;-0.20;99.90;;;;;;4899296;28;20220;-79
2022/11/22 08:28:34;;;;;;;37.97;19.67;;;-0.30;99.90;;;;;;4900091;28;20225;-77
2022/11/22 08:31:02;;;;;;;32.00;20.67;;;-0.20;99.90;;;;;;4917533;28;20227;-77
2022/11/22 08:33:29;;;;;;;32.63;20.67;;;-0.20;99.90;;;;;;4915352;28;20588;-77
2022/11/22 08:35:56;;;;;;;37.27;19.80;;;-0.20;99.90;;;;;;4908534;28;20235;-77
2022/11/22 08:38:24;;;;;;;33.23;20.73;;;-0.20;99.90;;;;;;4907495;28;20256;-78
2022/11/22 08:40:51;;;;;;;33.27;20.00;;;-0.20;99.90;;;;;;4910254;28;20245;-77
2022/11/22 08:43:17;;;;;;;34.63;20.27;;;-0.20;99.90;;;;;;4933434;28;20351;-78
2022/11/22 08:45:44;;;;;;;30.63;20.53;;;-0.20;99.90;;;;;;4909112;28;20228;-77
2022/11/22 08:48:11;;;;;;;33.87;19.80;;;-0.20;99.90;;;;;;4914452;28;20224;-78
2022/11/22 08:50:37;;;;;;;31.77;21.03;;;-0.30;99.90;;;;;;4916938;28;20844;-77
2022/11/22 08:53:04;;;;;;;31.77;20.73;;;-0.30;99.90;;;;;;4915325;28;20232;-77
2022/11/22 08:55:32;;;;;;;32.03;19.93;;;-0.30;99.90;;;;;;4908958;28;20318;-78
2022/11/22 08:57:59;;;;;;;35.83;20.83;;;-0.30;99.90;;;;;;4939235;28;20242;-77
2022/11/22 09:00:26;;;;;;;31.53;20.40;;;-0.30;99.90;;;;;;4904740;28;20248;-77
2022/11/22 09:02:53;;;;;;;33.37;21.37;;;-0.30;99.90;;;;;;4911970;28;20236;-78
2022/11/22 09:05:20;;;;;;;34.17;21.00;;;-0.30;99.90;;;;;;4906751;28;20230;-77
2022/11/22 09:07:46;;;;;;;35.23;21.33;;;-0.20;99.90;;;;;;4906805;28;20235;-77
2022/11/22 09:10:13;;;;;;;216.53;32.60;;;-0.20;99.90;;;;;;4905786;28;20229;-77
2022/11/22 09:12:44;;;;;;;31.23;20.30;;;-0.20;99.90;;;;;;4906126;28;20268;-78
2022/11/22 09:15:11;;;;;;;35.53;20.37;;;-0.20;99.90;;;;;;4904946;28;20233;-77
2022/11/22 09:17:39;;;;;;;34.03;19.90;;;-0.20;99.90;;;;;;4903481;28;20313;-78
2022/11/22 09:20:07;;;;;;;30.90;20.10;;;-0.20;99.90;;;;;;4908061;28;20229;-77
2022/11/22 09:22:36;;;;;;;32.07;20.23;;;-0.20;99.90;;;;;;4899019;28;20321;-77
2022/11/22 09:25:08;;;;;;;32.70;20.63;;;-0.20;99.90;;;;;;4921558;29;20232;-78
2022/11/22 09:27:35;;;;;;;33.50;20.80;;;-0.10;99.90;;;;;;4950120;28;20787;-77
2022/11/22 09:30:09;;;;;;;34.53;21.47;;;-0.10;99.90;;;;;;4909163;28;20704;-77
2022/11/22 09:32:36;;;;;;;39.73;21.23;;;-0.10;99.90;;;;;;4899966;28;20234;-77
2022/11/22 09:35:03;;;;;;;34.23;21.50;;;0.00;99.90;;;;;;4918598;28;20235;-77
2022/11/22 09:37:31;;;;;;;41.40;20.30;;;-0.10;99.90;;;;;;4909884;28;20246;-77
2022/11/22 09:39:58;;;;;;;32.93;19.83;;;0.00;99.90;;;;;;4909521;28;20306;-79
2022/11/22 09:42:51;;;;;;;33.73;20.70;;;0.00;99.90;;;;;;4907830;28;20225;-79
2022/11/22 09:45:57;;;;;;;32.03;19.57;;;0.00;99.90;;;;;;4904178;28;20236;-79
2022/11/22 09:48:39;;;;;;;29.73;18.60;;;0.00;99.90;;;;;;4934045;28;20239;-77
2022/11/22 09:51:09;;;;;;;32.67;19.40;;;0.10;99.90;;;;;;4902228;28;20771;-77
2022/11/22 09:53:41;;;;;;;30.37;19.50;;;0.10;99.90;;;;;;4901676;28;20250;-77
2022/11/22 09:56:12;;;;;;;35.43;20.60;;;0.00;99.90;;;;;;4906637;28;20240;-77
2022/11/22 09:58:42;;;;;;;35.60;20.73;;;0.00;99.90;;;;;;4900856;28;20226;-77
2022/11/22 10:01:12;;;;;;;31.60;20.53;;;0.00;99.90;;;;;;4906754;28;20696;-77
2022/11/22 10:03:47;;;;;;;29.73;19.43;;;0.00;99.90;;;;;;4903514;28;20233;-77
2022/11/22 10:06:20;;;;;;;32.83;19.97;;;0.00;99.90;;;;;;4919738;28;20223;-77
2022/11/22 10:08:57;;;;;;;32.13;20.17;;;0.00;99.90;;;;;;4912688;28;20316;-77
2022/11/22 10:11:33;;;;;;;30.93;20.13;;;-0.10;99.90;;;;;;4902623;28;20480;-77
2022/11/22 10:14:04;;;;;;;32.77;19.53;;;0.00;99.90;;;;;;4904060;28;20242;-78
2022/11/22 10:16:35;;;;;;;32.97;21.13;;;0.00;99.90;;;;;;4883967;28;20241;-77
2022/11/22 10:19:11;;;;;;;37.53;21.40;;;0.00;99.90;;;;;;4920992;28;20229;-77
2022/11/22 10:21:38;;;;;;;30.30;19.40;;;0.00;99.90;;;;;;4985653;28;20748;-77
2022/11/22 10:24:13;;;;;;;36.43;21.00;;;0.00;99.90;;;;;;4897607;28;20246;-78
2022/11/22 10:26:41;;;;;;;41.80;21.70;;;0.00;99.90;;;;;;4932221;28;20746;-78
2022/11/22 10:29:23;;;;;;;35.13;20.93;;;0.10;99.90;;;;;;4898218;28;20321;-79
2022/11/22 10:31:56;;;;;;;37.17;20.87;;;0.10;99.90;;;;;;4904314;28;20225;-77
2022/11/22 10:34:35;;;;;;;52.47;21.17;;;0.10;99.90;;;;;;4903539;28;20251;-77
2022/11/22 10:37:11;;;;;;;37.03;21.77;;;0.10;99.90;;;;;;4907285;28;20234;-77
2022/11/22 10:40:00;;;;;;;39.27;20.83;;;0.10;99.90;;;;;;4898599;28;20244;-77
2022/11/22 10:42:38;;;;;;;43.47;20.33;;;0.20;99.90;;;;;;4885949;28;20736;-78
2022/11/22 10:45:14;;;;;;;55.77;22.07;;;0.20;99.90;;;;;;4892207;28;20327;-77
2022/11/22 10:47:53;;;;;;;37.20;21.57;;;0.20;99.90;;;;;;4922616;28;20292;-77
2022/11/22 10:50:29;;;;;;;31.37;19.70;;;0.20;99.90;;;;;;4902600;28;20270;-77
2022/11/22 10:53:03;;;;;;;33.20;21.17;;;0.30;99.90;;;;;;4904371;28;20237;-79
2022/11/22 10:55:49;;;;;;;35.47;22.07;;;0.30;99.90;;;;;;4895053;28;20237;-78
2022/11/22 10:58:25;;;;;;;34.67;20.70;;;0.30;99.90;;;;;;4923474;28;20240;-77
2022/11/22 11:01:02;;;;;;;34.00;20.97;;;0.30;99.90;;;;;;4911325;28;20691;-77
2022/11/22 11:03:33;;;;;;;113.07;24.80;;;0.40;99.90;;;;;;4890142;28;20331;-78
2022/11/22 11:06:07;;;;;;;34.50;20.97;;;0.40;99.90;;;;;;4898217;28;20359;-77
2022/11/22 11:08:39;;;;;;;39.57;21.07;;;0.40;99.90;;;;;;4958336;28;20228;-77
2022/11/22 11:11:06;;;;;;;30.13;19.67;;;0.40;99.90;;;;;;4903713;28;20232;-77
2022/11/22 11:13:36;;;;;;;35.00;20.40;;;0.50;99.90;;;;;;4938898;28;20253;-77
2022/11/22 11:16:08;;;;;;;31.63;19.27;;;0.50;99.90;;;;;;4910210;28;20552;-77
2022/11/22 11:18:39;;;;;;;32.00;19.60;;;0.40;99.90;;;;;;4904405;28;20308;-77
2022/11/22 11:21:07;;;;;;;32.43;20.17;;;0.40;99.90;;;;;;4911369;28;20274;-77
2022/11/22 11:23:34;;;;;;;30.53;19.67;;;0.40;99.90;;;;;;4904681;28;20238;-77
2022/11/22 11:26:21;;;;;;;32.17;20.10;;;0.40;99.90;;;;;;4910110;28;20294;-77
2022/11/22 11:28:47;;;;;;;35.87;20.60;;;0.50;99.90;;;;;;4973540;28;20267;-78
2022/11/22 11:31:17;;;;;;;31.30;19.47;;;0.50;99.90;;;;;;4910332;28;20334;-77
2022/11/22 11:33:45;;;;;;;68.30;21.30;;;0.50;99.90;;;;;;4909528;28;20232;-77
2022/11/22 11:36:16;;;;;;;34.73;21.13;;;0.60;99.90;;;;;;4932049;28;20227;-77
2022/11/22 11:38:53;;;;;;;33.37;20.50;;;0.60;99.90;;;;;;4906027;28;20240;-78
2022/11/22 11:41:25;;;;;;;30.07;20.23;;;0.70;99.90;;;;;;4915216;28;20664;-78
2022/11/22 11:43:55;;;;;;;33.50;20.50;;;0.70;99.90;;;;;;4912790;28;20239;-78
2022/11/22 11:46:24;;;;;;;32.10;20.10;;;0.60;99.90;;;;;;4900122;28;20633;-78
2022/11/22 11:48:52;;;;;;;36.53;21.07;;;0.60;99.90;;;;;;4908259;28;20236;-79
2022/11/22 11:51:26;;;;;;;33.60;20.57;;;0.60;99.90;;;;;;4909774;28;20236;-77
2022/11/22 11:54:01;;;;;;;33.27;20.70;;;0.60;99.90;;;;;;4899299;28;20248;-78
2022/11/22 11:56:43;;;;;;;30.97;20.20;;;0.60;99.90;;;;;;4902165;28;20246;-78
2022/11/22 11:59:14;;;;;;;33.40;20.67;;;0.60;99.90;;;;;;4900636;28;20271;-77
2022/11/22 12:01:48;;;;;;;31.70;20.13;;;0.70;99.90;;;;;;4920104;28;20310;-77
2022/11/22 12:04:20;;;;;;;34.33;20.37;;;0.70;99.90;;;;;;4902407;28;20822;-78
2022/11/22 12:07:03;;;;;;;36.77;20.57;;;0.70;99.90;;;;;;4908265;28;20224;-78
2022/11/22 12:09:36;;;;;;;34.00;20.03;;;0.80;99.90;;;;;;4907667;28;20301;-78
2022/11/22 12:12:12;;;;;;;35.77;21.43;;;0.80;99.90;;;;;;4913815;28;20754;-78
2022/11/22 12:14:43;;;;;;;34.40;20.47;;;0.90;99.90;;;;;;4912001;28;20318;-77
2022/11/22 12:17:20;;;;;;;31.73;19.53;;;0.90;99.90;;;;;;4918063;28;20233;-78
2022/11/22 12:20:02;;;;;;;32.40;20.43;;;1.00;99.90;;;;;;4916378;28;20231;-78
2022/11/22 12:22:34;;;;;;;39.13;19.53;;;1.00;99.90;;;;;;4898082;28;20231;-78
2022/11/22 12:25:23;;;;;;;32.53;20.53;;;1.10;99.90;;;;;;4919724;28;20233;-78
2022/11/22 12:27:50;;;;;;;32.20;19.67;;;1.20;99.90;;;;;;4954742;28;20979;-78
2022/11/22 12:30:17;;;;;;;34.13;20.83;;;1.20;99.90;;;;;;4907278;28;20231;-78
2022/11/22 12:32:50;;;;;;;31.33;20.27;;;1.30;99.90;;;;;;4908146;28;20231;-77
2022/11/22 12:35:20;;;;;;;50.17;21.57;;;1.30;99.90;;;;;;4908188;28;20239;-80
2022/11/22 12:37:54;;;;;;;35.47;21.20;;;1.30;99.90;;;;;;4918950;28;20632;-79
2022/11/22 12:40:25;;;;;;;32.87;19.57;;;1.40;99.90;;;;;;4925095;28;20727;-79
2022/11/22 12:42:56;;;;;;;35.20;19.70;;;1.40;99.90;;;;;;4912451;28;20798;-78
2022/11/22 12:45:30;;;;;;;32.63;20.87;;;1.40;99.90;;;;;;4903764;28;20618;-78
2022/11/22 12:48:00;;;;;;;31.43;19.70;;;1.50;99.90;;;;;;4929899;28;20228;-77
2022/11/22 12:50:36;;;;;;;31.10;20.20;;;1.60;99.90;;;;;;4904784;28;20236;-77
2022/11/22 12:53:09;;;;;;;29.27;18.93;;;1.60;99.90;;;;;;4899486;28;20232;-77